Terminal Aerodrome Forecast
Issued by NWS

Home | Current Version | Previous Version | Text Only | Print | Product List | Glossary On
Versions: 1 2 3 4 5 6 7 8 9 10 11 12 13 14 15 16 17 18 19 20
000
FTPA31 PHFO 210539
TAFMDY
TAF
PMDY 210539Z 2106/2206 09006KT P6SM SCT015
      TEMPO 2106/2110 BKN015
     FM211200 12006KT P6SM SCT015
     FM220300 08008KT P6SM SCT015 BKN025=

USA.gov is the U.S. government's official web portal to all federal, state and local government web resources and services.